METAR Data
IDs: Format: Raw Decoded Include TAF

Data at: 2234 UTC 23 Apr 2019

KSKX 232156Z AUTO 22010KT 10SM -RA FEW014 BKN026 OVC060 07/04 A3017 RMK AO2 RAE34B54 SLP201 P0001 T00670044 $
KSKX 232056Z AUTO 22011G16KT 10SM -RA FEW021 OVC038 07/04 A3016 RMK AO2 SLP192 P0005 60005 T00720044 56011 $
KSKX 231956Z AUTO 35004KT 10SM -RA OVC037 10/02 A3016 RMK AO2 RAB47 SLP187 P0000 T01000022 $
KSKX 231856Z AUTO VRB05KT 10SM SCT035 SCT055 10/03 A3018 RMK AO2 SLP191 T01000028 $
KSKX 231756Z AUTO 34007KT 10SM SCT085 09/03 A3020 RMK AO2 SLP201 60001 T00890033 10089 20033 58003 $
KSKX 231656Z AUTO 36008KT 10SM FEW048 OVC080 08/04 A3021 RMK AO2 SLP211 T00780039 $
KSKX 231556Z AUTO 01008KT 10SM SCT055 BKN085 06/03 A3021 RMK AO2 RAE09 SLP213 P0000 T00610033 $
KSKX 231456Z AUTO 35008KT 10SM -RA FEW022 BKN035 OVC100 05/04 A3021 RMK AO2 SLP218 P0001 60001 T00500039 51006 $
KSKX 231356Z AUTO 34006KT 10SM -RA BKN049 OVC060 04/03 A3021 RMK AO2 SLP212 P0000 T00440033 $
KSKX 231256Z AUTO 34005KT 10SM -RA FEW042 OVC065 04/03 A3020 RMK AO2 RAB46 SLP206 P0000 T00390028 $
KSKX 231218Z AUTO 34006KT 10SM SCT030 SCT042 OVC060 03/03 A3019 RMK AO2 $
KSKX 231156Z AUTO 34007KT 10SM BKN026 OVC065 03/02 A3019 RMK AO2 SLP202 60001 70009 T00330022 10061 20033 55006 $
KSKX 231138Z AUTO 33005KT 10SM BKN024 OVC100 03/02 A3019 RMK AO2 $
KSKX 231056Z AUTO 34009KT 10SM OVC090 04/03 A3018 RMK AO2 RAE24 SLP195 P0000 T00390028 $
KSKX 231006Z AUTO 34006KT 10SM -RA SCT029 BKN065 OVC080 04/03 A3020 RMK AO2 P0000 $
KSKX 230956Z AUTO 35007KT 10SM -RA BKN029 BKN044 OVC060 04/03 A3020 RMK AO2 SLP204 P0001 T00390033 $
KSKX 230856Z AUTO 29003KT 10SM -RA FEW031 OVC042 06/03 A3021 RMK AO2 RAB25 SLP203 P0000 60000 T00560033 56004 $
KSKX 230756Z AUTO 00000KT 10SM BKN055 OVC070 05/04 A3022 RMK AO2 SLP200 T00500039 $
KSKX 230656Z AUTO 15009KT 10SM OVC065 06/02 A3022 RMK AO2 RAE04 SLP187 P0000 T00610022 401890011 $
KSKX 230556Z AUTO 15007KT 10SM -RA SCT050 OVC060 06/02 A3023 RMK AO2 RAE06B29 SLP193 P0000 60008 T00610022 10100 20050 53005 $
KSKX 230456Z AUTO 07008KT 10SM -RA BKN070 OVC090 06/04 A3020 RMK AO2 SLP187 P0001 T00560039 $
KSKX 230356Z AUTO 11009KT 10SM -RA BKN034 OVC046 06/04 A3022 RMK AO2 SLP198 P0005 T00560039 $
KSKX 230256Z AUTO 16010KT 10SM -RA OVC037 05/03 A3021 RMK AO2 RAB25 SLP197 P0002 60002 T00500033 53015 $
KSKX 230156Z AUTO 13018G26KT 10SM OVC090 07/02 A3017 RMK AO2 PK WND 12029/0112 SLP189 T00720017 $
KSKX 230056Z AUTO 11022G30KT 10SM FEW060 OVC080 09/02 A3015 RMK AO2 PK WND 12030/0047 SLP190 T00940017 $
KSKX 222356Z AUTO 10017KT 10SM SCT044 SCT060 OVC095 09/03 A3016 RMK AO2 PK WND 12030/2335 RAB26E50 SLP191 P0000 60000 T00940028 10189 20094 56009 $
KSKX 222256Z AUTO 10014KT 10SM SCT049 BKN060 OVC085 11/03 A3016 RMK AO2 RAE29 SLP188 P0000 T01110028 $
KSKX 222156Z AUTO 10019KT 10SM -RA BKN050 OVC065 11/03 A3016 RMK AO2 SLP189 P0000 T01060033 $
KSKX 222056Z AUTO VRB04KT 10SM -RA BKN043 OVC050 11/04 A3019 RMK AO2 RAB31 SLP198 P0000 60000 T01110039 53013 $
KSKX 221956Z AUTO 14019G27KT 10SM SCT070 BKN090 BKN120 14/01 A3016 RMK AO2 PK WND 17034/1927 LTG DSNT SW SLP180 T01390006 $
KSKX 221856Z AUTO 17021G30KT 10SM FEW090 SCT110 18/00 A3015 RMK AO2 PK WND 17030/1853 LTG DSNT NE SLP168 T01780000 $
KSKX 221756Z AUTO 24004KT 10SM OVC095 17/M04 A3014 RMK AO2 SLP167 T01671044 10178 20011 58007 $
KSKX 221656Z AUTO 19007KT 130V210 10SM FEW090 17/M05 A3016 RMK AO2 SLP165 T01671050 $
KSKX 221556Z AUTO VRB03KT 10SM CLR 16/M08 A3016 RMK AO2 SLP167 T01561078 $
KSKX 221456Z AUTO VRB04KT 10SM FEW100 14/M06 A3017 RMK AO2 SLP165 T01391061 50007 $
KSKX 221356Z AUTO 00000KT 10SM CLR 09/M05 A3017 RMK AO2 SLP179 T00891050 $
KSKX 221256Z AUTO 05003KT 10SM CLR 03/M07 A3016 RMK AO2 SLP178 T00281067 $
KSKX 221156Z AUTO 09005KT 10SM CLR 03/M06 A3014 RMK AO2 SLP166 T00331061 10061 20022 51003 $
KSKX 221056Z AUTO 28005KT 10SM OVC100 03/M07 A3014 RMK AO2 SLP162 T00331067 $